Terminal Aerodrome Forecast
Issued by NWS Albany, NY

Home | Current Version | Previous Version | Text Only | Print | Product List | Glossary On
Versions: 1 2 3 4 5 6 7 8 9 10 11 12 13 14 15 16
273
FTUS41 KALY 310521
TAFALB
TAF
KALB 310521Z 3106/0106 22004KT P6SM FEW050 BKN200
      TEMPO 3108/3112 2SM BR SCT002
     FM311200 26008KT P6SM SKC
     FM311600 29012G22KT P6SM SKC
     FM010000 32005KT P6SM FEW030 FEW250=

USA.gov is the U.S. government's official web portal to all federal, state and local government web resources and services.